sensor_id;sensor_type;location;lat;lon;timestamp;pressure;altitude;pressure_sealevel;temperature;humidity
65758;BME280;52495;52.208;5.158;2022-12-29T00:00:03;99807.41;;;10.41;100.00
65758;BME280;52495;52.208;5.158;2022-12-29T00:02:38;99809.88;;;10.44;100.00
65758;BME280;52495;52.208;5.158;2022-12-29T00:05:05;99806.34;;;10.46;100.00
65758;BME280;52495;52.208;5.158;2022-12-29T00:07:33;99807.22;;;10.45;100.00
65758;BME280;52495;52.208;5.158;2022-12-29T00:10:00;99803.81;;;10.45;100.00
65758;BME280;52495;52.208;5.158;2022-12-29T00:12:27;99797.69;;;10.49;100.00
65758;BME280;52495;52.208;5.158;2022-12-29T00:15:15;99784.63;;;10.52;100.00
65758;BME280;52495;52.208;5.158;2022-12-29T00:17:59;99783.63;;;10.58;100.00
65758;BME280;52495;52.208;5.158;2022-12-29T00:20:25;99776.63;;;10.60;100.00
65758;BME280;52495;52.208;5.158;2022-12-29T00:23:11;99776.59;;;10.61;100.00
65758;BME280;52495;52.208;5.158;2022-12-29T00:25:55;99757.53;;;10.66;100.00
65758;BME280;52495;52.208;5.158;2022-12-29T00:28:40;99755.72;;;10.68;100.00
65758;BME280;52495;52.208;5.158;2022-12-29T00:31:24;99757.53;;;10.66;99.30
65758;BME280;52495;52.208;5.158;2022-12-29T00:34:10;99750.63;;;10.66;99.48
65758;BME280;52495;52.208;5.158;2022-12-29T00:36:55;99752.19;;;10.70;99.03
65758;BME280;52495;52.208;5.158;2022-12-29T00:39:23;99748.81;;;10.68;98.86
65758;BME280;52495;52.208;5.158;2022-12-29T00:42:08;99739.22;;;10.72;98.53
65758;BME280;52495;52.208;5.158;2022-12-29T00:45:03;99731.56;;;10.70;98.10
65758;BME280;52495;52.208;5.158;2022-12-29T00:47:30;99727.78;;;10.79;97.67
65758;BME280;52495;52.208;5.158;2022-12-29T00:49:57;99721.75;;;10.80;98.02
65758;BME280;52495;52.208;5.158;2022-12-29T00:52:22;99708.94;;;10.77;97.44
65758;BME280;52495;52.208;5.158;2022-12-29T00:54:50;99714.00;;;10.80;97.28
65758;BME280;52495;52.208;5.158;2022-12-29T00:57:18;99709.72;;;10.79;97.02
65758;BME280;52495;52.208;5.158;2022-12-29T00:59:45;99705.47;;;10.78;96.07
65758;BME280;52495;52.208;5.158;2022-12-29T01:02:11;99703.59;;;10.82;96.50
65758;BME280;52495;52.208;5.158;2022-12-29T01:04:38;99711.41;;;10.80;96.52
65758;BME280;52495;52.208;5.158;2022-12-29T01:07:05;99710.44;;;10.83;97.11
65758;BME280;52495;52.208;5.158;2022-12-29T01:09:32;99708.59;;;10.86;98.03
65758;BME280;52495;52.208;5.158;2022-12-29T01:12:18;99705.47;;;10.78;99.42
65758;BME280;52495;52.208;5.158;2022-12-29T01:15:06;99710.78;;;10.73;100.00
65758;BME280;52495;52.208;5.158;2022-12-29T01:17:33;99704.06;;;10.69;100.00
65758;BME280;52495;52.208;5.158;2022-12-29T01:20:01;99706.84;;;10.63;100.00
65758;BME280;52495;52.208;5.158;2022-12-29T01:22:27;99702.44;;;10.67;100.00
65758;BME280;52495;52.208;5.158;2022-12-29T01:24:54;99716.44;;;10.59;100.00
65758;BME280;52495;52.208;5.158;2022-12-29T01:27:23;99707.97;;;10.56;100.00
65758;BME280;52495;52.208;5.158;2022-12-29T01:29:49;99703.88;;;10.50;100.00
65758;BME280;52495;52.208;5.158;2022-12-29T01:32:16;99707.44;;;10.46;100.00
65758;BME280;52495;52.208;5.158;2022-12-29T01:34:43;99710.13;;;10.43;100.00
65758;BME280;52495;52.208;5.158;2022-12-29T01:37:10;99706.75;;;10.41;100.00
65758;BME280;52495;52.208;5.158;2022-12-29T01:39:37;99705.06;;;10.40;100.00
65758;BME280;52495;52.208;5.158;2022-12-29T01:42:04;99712.78;;;10.41;100.00
65758;BME280;52495;52.208;5.158;2022-12-29T01:44:56;99705.81;;;10.43;100.00
65758;BME280;52495;52.208;5.158;2022-12-29T01:47:31;99711.13;;;10.39;100.00
65758;BME280;52495;52.208;5.158;2022-12-29T01:50:03;99710.47;;;10.32;100.00
65758;BME280;52495;52.208;5.158;2022-12-29T01:52:33;99721.53;;;10.36;100.00
65758;BME280;52495;52.208;5.158;2022-12-29T01:55:03;99712.97;;;10.33;100.00
65758;BME280;52495;52.208;5.158;2022-12-29T01:57:34;99712.97;;;10.33;100.00
65758;BME280;52495;52.208;5.158;2022-12-29T02:00:07;99706.09;;;10.34;100.00
65758;BME280;52495;52.208;5.158;2022-12-29T02:02:42;99698.25;;;10.37;100.00
65758;BME280;52495;52.208;5.158;2022-12-29T02:05:21;99704.34;;;10.35;100.00
65758;BME280;52495;52.208;5.158;2022-12-29T02:07:50;99713.91;;;10.32;100.00
65758;BME280;52495;52.208;5.158;2022-12-29T02:10:19;99716.53;;;10.31;100.00
65758;BME280;52495;52.208;5.158;2022-12-29T02:12:47;99722.53;;;10.31;100.00
65758;BME280;52495;52.208;5.158;2022-12-29T02:15:16;99725.84;;;10.35;100.00
65758;BME280;52495;52.208;5.158;2022-12-29T02:17:59;99728.31;;;10.40;100.00
65758;BME280;52495;52.208;5.158;2022-12-29T02:20:45;99732.63;;;10.38;100.00
65758;BME280;52495;52.208;5.158;2022-12-29T02:23:43;99724.75;;;10.42;100.00
65758;BME280;52495;52.208;5.158;2022-12-29T02:26:33;99713.69;;;10.40;100.00
65758;BME280;52495;52.208;5.158;2022-12-29T02:29:30;99706.66;;;10.44;100.00
65758;BME280;52495;52.208;5.158;2022-12-29T02:32:08;99708.28;;;10.46;100.00
65758;BME280;52495;52.208;5.158;2022-12-29T02:34:47;99710.03;;;10.46;100.00
65758;BME280;52495;52.208;5.158;2022-12-29T02:37:20;99709.03;;;10.50;100.00
65758;BME280;52495;52.208;5.158;2022-12-29T02:39:56;99702.13;;;10.51;100.00
65758;BME280;52495;52.208;5.158;2022-12-29T02:42:33;99687.59;;;10.48;100.00
65758;BME280;52495;52.208;5.158;2022-12-29T02:45:04;99692.75;;;10.48;100.00
65758;BME280;52495;52.208;5.158;2022-12-29T02:47:38;99692.69;;;10.50;100.00
65758;BME280;52495;52.208;5.158;2022-12-29T02:50:13;99691.00;;;10.48;99.18
65758;BME280;52495;52.208;5.158;2022-12-29T02:52:42;99688.44;;;10.48;99.03
65758;BME280;52495;52.208;5.158;2022-12-29T02:55:13;99700.38;;;10.51;98.71
65758;BME280;52495;52.208;5.158;2022-12-29T02:57:39;99695.34;;;10.48;97.23
65758;BME280;52495;52.208;5.158;2022-12-29T03:00:07;99689.44;;;10.44;97.46
65758;BME280;52495;52.208;5.158;2022-12-29T03:06:01;99687.75;;;10.43;96.40
65758;BME280;52495;52.208;5.158;2022-12-29T03:08:38;99701.50;;;10.44;95.79
65758;BME280;52495;52.208;5.158;2022-12-29T03:11:08;99699.03;;;10.41;94.02
65758;BME280;52495;52.208;5.158;2022-12-29T03:13:59;99693.06;;;10.39;93.70
65758;BME280;52495;52.208;5.158;2022-12-29T03:16:47;99702.31;;;10.44;93.86
65758;BME280;52495;52.208;5.158;2022-12-29T03:19:20;99704.13;;;10.42;91.58
65758;BME280;52495;52.208;5.158;2022-12-29T03:21:51;99707.56;;;10.43;92.43
65758;BME280;52495;52.208;5.158;2022-12-29T03:24:44;99700.63;;;10.43;91.61
65758;BME280;52495;52.208;5.158;2022-12-29T03:27:15;99698.25;;;10.37;91.58
65758;BME280;52495;52.208;5.158;2022-12-29T03:29:46;99699.16;;;10.36;90.78
65758;BME280;52495;52.208;5.158;2022-12-29T03:32:19;99700.06;;;10.35;90.65
65758;BME280;52495;52.208;5.158;2022-12-29T03:34:49;99706.09;;;10.34;91.36
65758;BME280;52495;52.208;5.158;2022-12-29T03:37:18;99703.53;;;10.34;91.28
65758;BME280;52495;52.208;5.158;2022-12-29T03:39:47;99699.31;;;10.31;91.63
65758;BME280;52495;52.208;5.158;2022-12-29T03:42:16;99702.78;;;10.30;91.76
65758;BME280;52495;52.208;5.158;2022-12-29T03:44:45;99692.47;;;10.30;91.92
65758;BME280;52495;52.208;5.158;2022-12-29T03:47:14;99692.47;;;10.30;91.17
65758;BME280;52495;52.208;5.158;2022-12-29T03:49:43;99691.72;;;10.27;91.62
65758;BME280;52495;52.208;5.158;2022-12-29T03:52:12;99689.22;;;10.25;91.79
65758;BME280;52495;52.208;5.158;2022-12-29T03:54:42;99686.69;;;10.24;91.38
65758;BME280;52495;52.208;5.158;2022-12-29T03:57:10;99680.47;;;10.29;91.29
65758;BME280;52495;52.208;5.158;2022-12-29T03:59:50;99682.44;;;10.23;91.49
65758;BME280;52495;52.208;5.158;2022-12-29T04:02:17;99674.88;;;10.16;92.33
65758;BME280;52495;52.208;5.158;2022-12-29T04:04:44;99685.03;;;10.21;92.23
65758;BME280;52495;52.208;5.158;2022-12-29T04:07:12;99692.13;;;10.16;92.44
65758;BME280;52495;52.208;5.158;2022-12-29T04:09:40;99710.16;;;10.16;93.70
65758;BME280;52495;52.208;5.158;2022-12-29T04:12:09;99717.91;;;10.16;93.88
65758;BME280;52495;52.208;5.158;2022-12-29T04:14:36;99727.44;;;10.14;93.88
65758;BME280;52495;52.208;5.158;2022-12-29T04:17:03;99726.41;;;10.18;94.31
65758;BME280;52495;52.208;5.158;2022-12-29T04:19:30;99732.38;;;10.20;93.56
65758;BME280;52495;52.208;5.158;2022-12-29T04:21:57;99727.03;;;10.25;93.27
65758;BME280;52495;52.208;5.158;2022-12-29T04:24:25;99715.97;;;10.23;93.04
65758;BME280;52495;52.208;5.158;2022-12-29T04:26:52;99729.88;;;10.17;93.28
65758;BME280;52495;52.208;5.158;2022-12-29T04:29:41;99724.00;;;10.13;92.97
65758;BME280;52495;52.208;5.158;2022-12-29T04:32:24;99732.69;;;10.11;93.23
65758;BME280;52495;52.208;5.158;2022-12-29T04:34:53;99728.41;;;10.10;92.42
65758;BME280;52495;52.208;5.158;2022-12-29T04:37:20;99742.13;;;10.10;91.51
65758;BME280;52495;52.208;5.158;2022-12-29T04:39:48;99735.25;;;10.11;90.63
65758;BME280;52495;52.208;5.158;2022-12-29T04:42:15;99742.03;;;10.13;90.33
65758;BME280;52495;52.208;5.158;2022-12-29T04:44:43;99724.06;;;10.12;89.88
65758;BME280;52495;52.208;5.158;2022-12-29T04:47:13;99751.63;;;10.10;88.75
65758;BME280;52495;52.208;5.158;2022-12-29T04:49:50;99743.09;;;10.08;87.47
65758;BME280;52495;52.208;5.158;2022-12-29T04:52:37;99734.31;;;10.13;87.36
65758;BME280;52495;52.208;5.158;2022-12-29T04:55:07;99731.78;;;10.12;86.41
65758;BME280;52495;52.208;5.158;2022-12-29T04:57:34;99740.41;;;10.11;86.17
65758;BME280;52495;52.208;5.158;2022-12-29T05:00:01;99737.84;;;10.11;86.44
65758;BME280;52495;52.208;5.158;2022-12-29T05:02:28;99739.69;;;10.07;86.16
65758;BME280;52495;52.208;5.158;2022-12-29T05:04:56;99756.09;;;10.05;85.60
65758;BME280;52495;52.208;5.158;2022-12-29T05:07:23;99759.53;;;10.05;86.00
65758;BME280;52495;52.208;5.158;2022-12-29T05:09:50;99768.94;;;10.06;86.39
65758;BME280;52495;52.208;5.158;2022-12-29T05:12:18;99763.09;;;10.01;87.67
65758;BME280;52495;52.208;5.158;2022-12-29T05:14:53;99768.81;;;10.09;86.98
65758;BME280;52495;52.208;5.158;2022-12-29T05:17:20;99771.72;;;10.00;88.83
65758;BME280;52495;52.208;5.158;2022-12-29T05:19:47;99759.88;;;9.94;89.05
65758;BME280;52495;52.208;5.158;2022-12-29T05:22:14;99777.16;;;9.91;89.47
65758;BME280;52495;52.208;5.158;2022-12-29T05:24:43;99759.16;;;9.89;91.02
65758;BME280;52495;52.208;5.158;2022-12-29T05:27:10;99765.91;;;9.93;90.81
65758;BME280;52495;52.208;5.158;2022-12-29T05:29:47;99761.03;;;9.84;92.01
65758;BME280;52495;52.208;5.158;2022-12-29T05:32:14;99758.69;;;9.76;92.04
65758;BME280;52495;52.208;5.158;2022-12-29T05:34:42;99753.44;;;9.79;91.57
65758;BME280;52495;52.208;5.158;2022-12-29T05:37:09;99768.19;;;9.76;92.33
65758;BME280;52495;52.208;5.158;2022-12-29T05:39:37;99777.88;;;9.67;92.56
65758;BME280;52495;52.208;5.158;2022-12-29T05:42:05;99777.06;;;9.65;93.46
65758;BME280;52495;52.208;5.158;2022-12-29T05:44:58;99769.47;;;9.61;93.69
65758;BME280;52495;52.208;5.158;2022-12-29T05:47:44;99778.09;;;9.60;94.27
65758;BME280;52495;52.208;5.158;2022-12-29T05:50:31;99785.09;;;9.56;93.59
65758;BME280;52495;52.208;5.158;2022-12-29T05:53:10;99778.09;;;9.60;93.59
65758;BME280;52495;52.208;5.158;2022-12-29T05:55:38;99774.84;;;9.54;93.89
65758;BME280;52495;52.208;5.158;2022-12-29T05:58:04;99783.47;;;9.53;93.19
65758;BME280;52495;52.208;5.158;2022-12-29T06:00:32;99779.19;;;9.52;93.48
65758;BME280;52495;52.208;5.158;2022-12-29T06:02:59;99791.22;;;9.52;93.82
65758;BME280;52495;52.208;5.158;2022-12-29T06:05:26;99794.69;;;9.51;93.22
65758;BME280;52495;52.208;5.158;2022-12-29T06:07:53;99787.81;;;9.51;93.46
65758;BME280;52495;52.208;5.158;2022-12-29T06:10:20;99792.03;;;9.54;92.46
65758;BME280;52495;52.208;5.158;2022-12-29T06:12:52;99791.19;;;9.53;91.85
65758;BME280;52495;52.208;5.158;2022-12-29T06:15:19;99794.59;;;9.54;91.74
65758;BME280;52495;52.208;5.158;2022-12-29T06:17:50;99796.28;;;9.55;91.32
65758;BME280;52495;52.208;5.158;2022-12-29T06:20:17;99786.84;;;9.55;91.15
65758;BME280;52495;52.208;5.158;2022-12-29T06:22:43;99803.22;;;9.53;92.31
65758;BME280;52495;52.208;5.158;2022-12-29T06:25:12;99795.53;;;9.51;91.87
65758;BME280;52495;52.208;5.158;2022-12-29T06:27:40;99808.38;;;9.53;91.81
65758;BME280;52495;52.208;5.158;2022-12-29T06:30:08;99798.06;;;9.53;92.43
65758;BME280;52495;52.208;5.158;2022-12-29T06:32:37;99806.88;;;9.46;93.11
65758;BME280;52495;52.208;5.158;2022-12-29T06:35:08;99809.56;;;9.41;92.78
65758;BME280;52495;52.208;5.158;2022-12-29T06:37:40;99818.91;;;9.45;92.76
65758;BME280;52495;52.208;5.158;2022-12-29T06:40:08;99826.84;;;9.37;92.64
65758;BME280;52495;52.208;5.158;2022-12-29T06:42:52;99807.19;;;9.35;92.78
65758;BME280;52495;52.208;5.158;2022-12-29T06:45:38;99818.31;;;9.35;91.98
65758;BME280;52495;52.208;5.158;2022-12-29T06:48:06;99820.09;;;9.33;92.15
65758;BME280;52495;52.208;5.158;2022-12-29T06:50:34;99820.88;;;9.37;91.37
65758;BME280;52495;52.208;5.158;2022-12-29T06:53:01;99821.75;;;9.36;90.81
65758;BME280;52495;52.208;5.158;2022-12-29T06:55:28;99814.88;;;9.36;91.30
65758;BME280;52495;52.208;5.158;2022-12-29T06:57:55;99818.31;;;9.35;90.64
65758;BME280;52495;52.208;5.158;2022-12-29T07:00:21;99812.19;;;9.39;89.64
65758;BME280;52495;52.208;5.158;2022-12-29T07:02:48;99822.66;;;9.35;89.10
65758;BME280;52495;52.208;5.158;2022-12-29T07:05:15;99819.19;;;9.36;87.15
65758;BME280;52495;52.208;5.158;2022-12-29T07:07:43;99820.72;;;9.41;87.68
65758;BME280;52495;52.208;5.158;2022-12-29T07:10:10;99822.44;;;9.41;86.17
65758;BME280;52495;52.208;5.158;2022-12-29T07:12:37;99814.69;;;9.43;85.85
65758;BME280;52495;52.208;5.158;2022-12-29T07:15:04;99820.69;;;9.43;85.84
65758;BME280;52495;52.208;5.158;2022-12-29T07:17:31;99827.50;;;9.46;85.88
65758;BME280;52495;52.208;5.158;2022-12-29T07:19:58;99825.81;;;9.45;84.95
65758;BME280;52495;52.208;5.158;2022-12-29T07:22:24;99838.69;;;9.45;84.47
65758;BME280;52495;52.208;5.158;2022-12-29T07:24:52;99840.41;;;9.44;84.64
65758;BME280;52495;52.208;5.158;2022-12-29T07:27:19;99840.31;;;9.47;85.40
65758;BME280;52495;52.208;5.158;2022-12-29T07:29:46;99833.56;;;9.43;85.51
65758;BME280;52495;52.208;5.158;2022-12-29T07:32:12;99837.91;;;9.41;86.07
65758;BME280;52495;52.208;5.158;2022-12-29T07:34:39;99837.25;;;9.34;nan
65758;BME280;52495;52.208;5.158;2022-12-29T07:37:06;99840.69;;;9.35;86.01
65758;BME280;52495;52.208;5.158;2022-12-29T07:39:33;99847.59;;;9.33;86.67
65758;BME280;52495;52.208;5.158;2022-12-29T07:42:01;99839.16;;;9.27;87.22
65758;BME280;52495;52.208;5.158;2022-12-29T07:44:36;99838.41;;;9.22;87.50
65758;BME280;52495;52.208;5.158;2022-12-29T07:47:15;99843.56;;;9.22;88.51
65758;BME280;52495;52.208;5.158;2022-12-29T07:49:42;99837.66;;;9.19;88.78
65758;BME280;52495;52.208;5.158;2022-12-29T07:52:08;99842.06;;;9.15;88.97
65758;BME280;52495;52.208;5.158;2022-12-29T07:54:35;99856.72;;;9.13;89.59
65758;BME280;52495;52.208;5.158;2022-12-29T07:57:04;99843.09;;;9.09;89.36
65758;BME280;52495;52.208;5.158;2022-12-29T07:59:31;99840.38;;;9.14;89.55
65758;BME280;52495;52.208;5.158;2022-12-29T08:01:58;99837.81;;;9.14;90.03
65758;BME280;52495;52.208;5.158;2022-12-29T08:04:25;99835.16;;;9.17;89.74
65758;BME280;52495;52.208;5.158;2022-12-29T08:06:52;99830.81;;;9.19;89.39
65758;BME280;52495;52.208;5.158;2022-12-29T08:09:18;99827.28;;;9.22;88.90
65758;BME280;52495;52.208;5.158;2022-12-29T08:11:45;99829.78;;;9.25;88.55
65758;BME280;52495;52.208;5.158;2022-12-29T08:14:13;99829.72;;;9.28;87.83
65758;BME280;52495;52.208;5.158;2022-12-29T08:16:40;99822.88;;;9.27;87.88
65758;BME280;52495;52.208;5.158;2022-12-29T08:19:06;99827.00;;;9.33;88.09
65758;BME280;52495;52.208;5.158;2022-12-29T08:21:33;99831.97;;;9.39;86.34
65758;BME280;52495;52.208;5.158;2022-12-29T08:24:00;99827.56;;;9.43;85.52
65758;BME280;52495;52.208;5.158;2022-12-29T08:26:27;99828.47;;;9.41;85.69
65758;BME280;52495;52.208;5.158;2022-12-29T08:28:54;99821.47;;;9.45;85.16
65758;BME280;52495;52.208;5.158;2022-12-29T08:31:23;99821.47;;;9.45;84.77
65758;BME280;52495;52.208;5.158;2022-12-29T08:33:50;99833.47;;;9.46;85.93
65758;BME280;52495;52.208;5.158;2022-12-29T08:36:17;99829.94;;;9.50;85.74
65758;BME280;52495;52.208;5.158;2022-12-29T08:38:43;99821.41;;;9.48;85.27
65758;BME280;52495;52.208;5.158;2022-12-29T08:41:10;99834.34;;;9.47;85.44
65758;BME280;52495;52.208;5.158;2022-12-29T08:43:37;99843.88;;;9.43;85.45
65758;BME280;52495;52.208;5.158;2022-12-29T08:46:04;99839.66;;;9.40;86.55
65758;BME280;52495;52.208;5.158;2022-12-29T08:48:32;99854.16;;;9.43;85.89
65758;BME280;52495;52.208;5.158;2022-12-29T08:50:59;99838.84;;;9.38;86.41
65758;BME280;52495;52.208;5.158;2022-12-29T08:53:26;99860.41;;;9.36;87.25
65758;BME280;52495;52.208;5.158;2022-12-29T08:55:56;99838.63;;;9.46;86.45
65758;BME280;52495;52.208;5.158;2022-12-29T08:58:23;99837.97;;;9.39;86.93
65758;BME280;52495;52.208;5.158;2022-12-29T09:00:52;99856.81;;;9.41;86.59
65758;BME280;52495;52.208;5.158;2022-12-29T09:03:19;99856.81;;;9.41;86.30
65758;BME280;52495;52.208;5.158;2022-12-29T09:05:48;99849.88;;;9.44;87.25
65758;BME280;52495;52.208;5.158;2022-12-29T09:08:16;99869.69;;;9.41;86.99
65758;BME280;52495;52.208;5.158;2022-12-29T09:10:43;99865.41;;;9.40;86.95
65758;BME280;52495;52.208;5.158;2022-12-29T09:13:10;99862.91;;;9.39;87.82
65758;BME280;52495;52.208;5.158;2022-12-29T09:15:37;99867.13;;;9.40;88.91
65758;BME280;52495;52.208;5.158;2022-12-29T09:18:04;99868.22;;;9.33;90.22
65758;BME280;52495;52.208;5.158;2022-12-29T09:20:31;99882.94;;;9.27;91.32
65758;BME280;52495;52.208;5.158;2022-12-29T09:23:00;99894.25;;;9.22;91.60
65758;BME280;52495;52.208;5.158;2022-12-29T09:25:28;99896.75;;;9.25;91.88
65758;BME280;52495;52.208;5.158;2022-12-29T09:27:55;99892.69;;;9.16;93.36
65758;BME280;52495;52.208;5.158;2022-12-29T09:30:22;99915.00;;;9.16;94.12
65758;BME280;52495;52.208;5.158;2022-12-29T09:32:49;99918.53;;;9.13;94.42
65758;BME280;52495;52.208;5.158;2022-12-29T09:35:16;99920.22;;;9.14;95.05
65758;BME280;52495;52.208;5.158;2022-12-29T09:37:43;99928.00;;;9.11;95.71
65758;BME280;52495;52.208;5.158;2022-12-29T09:40:24;99932.34;;;9.09;95.82
65758;BME280;52495;52.208;5.158;2022-12-29T09:45:48;99940.13;;;9.07;96.59
65758;BME280;52495;52.208;5.158;2022-12-29T09:48:24;99954.84;;;9.02;97.62
65758;BME280;52495;52.208;5.158;2022-12-29T09:50:57;99960.88;;;9.01;97.91
65758;BME280;52495;52.208;5.158;2022-12-29T09:53:27;99955.78;;;8.98;99.14
65758;BME280;52495;52.208;5.158;2022-12-29T09:55:59;99971.25;;;8.98;98.96
65758;BME280;52495;52.208;5.158;2022-12-29T09:58:30;99976.38;;;9.00;99.00
65758;BME280;52495;52.208;5.158;2022-12-29T10:01:04;99970.41;;;8.98;100.00
65758;BME280;52495;52.208;5.158;2022-12-29T10:03:40;99987.69;;;8.92;100.00
65758;BME280;52495;52.208;5.158;2022-12-29T10:06:13;99992.03;;;8.90;100.00
65758;BME280;52495;52.208;5.158;2022-12-29T10:08:46;100002.31;;;8.92;100.00
65758;BME280;52495;52.208;5.158;2022-12-29T10:11:23;100004.88;;;8.92;100.00
65758;BME280;52495;52.208;5.158;2022-12-29T10:14:08;100004.91;;;8.90;100.00
65758;BME280;52495;52.208;5.158;2022-12-29T10:16:42;99999.66;;;8.95;100.00
65758;BME280;52495;52.208;5.158;2022-12-29T10:19:26;99997.88;;;8.97;100.00
65758;BME280;52495;52.208;5.158;2022-12-29T10:22:04;100013.31;;;8.99;100.00
65758;BME280;52495;52.208;5.158;2022-12-29T10:24:38;100007.28;;;8.98;100.00
65758;BME280;52495;52.208;5.158;2022-12-29T10:27:10;100010.69;;;9.00;100.00
65758;BME280;52495;52.208;5.158;2022-12-29T10:29:42;100019.41;;;8.94;100.00
65758;BME280;52495;52.208;5.158;2022-12-29T10:32:20;100023.53;;;9.02;100.00
65758;BME280;52495;52.208;5.158;2022-12-29T10:34:51;100022.66;;;9.03;100.00
65758;BME280;52495;52.208;5.158;2022-12-29T10:37:32;100030.19;;;9.10;100.00
65758;BME280;52495;52.208;5.158;2022-12-29T10:40:03;100030.06;;;9.15;100.00
65758;BME280;52495;52.208;5.158;2022-12-29T10:42:41;100037.75;;;9.17;100.00
65758;BME280;52495;52.208;5.158;2022-12-29T10:45:11;100052.25;;;9.21;100.00
65758;BME280;52495;52.208;5.158;2022-12-29T10:47:50;100058.22;;;9.23;100.00
65758;BME280;52495;52.208;5.158;2022-12-29T10:50:19;100052.38;;;9.16;100.00
65758;BME280;52495;52.208;5.158;2022-12-29T10:52:46;100063.50;;;9.17;99.11
65758;BME280;52495;52.208;5.158;2022-12-29T10:55:15;100065.94;;;9.23;98.25
65758;BME280;52495;52.208;5.158;2022-12-29T10:57:45;100077.06;;;9.23;97.34
65758;BME280;52495;52.208;5.158;2022-12-29T11:00:16;100081.28;;;9.27;97.84
65758;BME280;52495;52.208;5.158;2022-12-29T11:03:00;100088.06;;;9.32;98.70
65758;BME280;52495;52.208;5.158;2022-12-29T11:05:37;100074.97;;;9.39;98.69
65758;BME280;52495;52.208;5.158;2022-12-29T11:08:10;100084.22;;;9.48;98.58
65758;BME280;52495;52.208;5.158;2022-12-29T11:10:38;100090.13;;;9.52;97.95
65758;BME280;52495;52.208;5.158;2022-12-29T11:13:14;100095.13;;;9.58;98.07
65758;BME280;52495;52.208;5.158;2022-12-29T11:15:42;100102.69;;;9.66;97.37
65758;BME280;52495;52.208;5.158;2022-12-29T11:18:22;100109.53;;;9.67;96.31
65758;BME280;52495;52.208;5.158;2022-12-29T11:20:50;100104.28;;;9.70;96.12
65758;BME280;52495;52.208;5.158;2022-12-29T11:23:28;100115.25;;;9.78;96.32
65758;BME280;52495;52.208;5.158;2022-12-29T11:26:20;100112.66;;;9.78;95.27
65758;BME280;52495;52.208;5.158;2022-12-29T11:29:05;100120.19;;;9.86;95.02
65758;BME280;52495;52.208;5.158;2022-12-29T11:31:43;100121.94;;;9.85;94.90
65758;BME280;52495;52.208;5.158;2022-12-29T11:34:17;100139.03;;;9.90;93.65
65758;BME280;52495;52.208;5.158;2022-12-29T11:36:45;100131.19;;;9.93;93.87
65758;BME280;52495;52.208;5.158;2022-12-29T11:39:25;100127.81;;;9.91;93.05
65758;BME280;52495;52.208;5.158;2022-12-29T11:41:54;100137.22;;;9.93;92.33
65758;BME280;52495;52.208;5.158;2022-12-29T11:44:22;100146.56;;;9.97;91.40
65758;BME280;52495;52.208;5.158;2022-12-29T11:46:50;100139.53;;;10.02;90.32
65758;BME280;52495;52.208;5.158;2022-12-29T11:49:20;100153.44;;;9.98;89.99
65758;BME280;52495;52.208;5.158;2022-12-29T11:51:49;100150.66;;;10.06;89.64
65758;BME280;52495;52.208;5.158;2022-12-29T11:54:21;100156.00;;;9.98;90.27
65758;BME280;52495;52.208;5.158;2022-12-29T11:56:49;100161.91;;;10.02;89.28
65758;BME280;52495;52.208;5.158;2022-12-29T11:59:42;100157.50;;;10.07;89.40
65758;BME280;52495;52.208;5.158;2022-12-29T12:02:35;100162.31;;;10.20;89.07
65758;BME280;52495;52.208;5.158;2022-12-29T12:05:09;100161.47;;;10.19;86.83
65758;BME280;52495;52.208;5.158;2022-12-29T12:07:40;100157.72;;;10.31;87.67
65758;BME280;52495;52.208;5.158;2022-12-29T12:10:16;100164.50;;;10.35;85.68
65758;BME280;52495;52.208;5.158;2022-12-29T12:12:49;100163.75;;;10.30;85.08
65758;BME280;52495;52.208;5.158;2022-12-29T12:15:23;100164.66;;;10.29;85.52
65758;BME280;52495;52.208;5.158;2022-12-29T12:18:00;100173.25;;;10.28;85.90
65758;BME280;52495;52.208;5.158;2022-12-29T12:20:38;100175.34;;;10.15;86.59
65758;BME280;52495;52.208;5.158;2022-12-29T12:23:13;100178.88;;;10.11;86.03
65758;BME280;52495;52.208;5.158;2022-12-29T12:25:50;100172.06;;;10.08;86.25
65758;BME280;52495;52.208;5.158;2022-12-29T12:28:21;100184.25;;;10.03;84.97
65758;BME280;52495;52.208;5.158;2022-12-29T12:30:55;100185.28;;;9.96;84.74
65758;BME280;52495;52.208;5.158;2022-12-29T12:33:28;100192.00;;;10.01;85.48
65758;BME280;52495;52.208;5.158;2022-12-29T12:36:16;100194.81;;;9.92;84.17
65758;BME280;52495;52.208;5.158;2022-12-29T12:38:53;100195.94;;;9.82;83.20
65758;BME280;52495;52.208;5.158;2022-12-29T12:41:28;100200.13;;;9.86;83.04
65758;BME280;52495;52.208;5.158;2022-12-29T12:44:01;100204.28;;;9.92;82.43
65758;BME280;52495;52.208;5.158;2022-12-29T12:47:00;100202.69;;;9.87;81.98
65758;BME280;52495;52.208;5.158;2022-12-29T12:49:53;100195.09;;;9.81;83.45
65758;BME280;52495;52.208;5.158;2022-12-29T12:52:30;100195.94;;;9.82;83.77
65758;BME280;52495;52.208;5.158;2022-12-29T12:55:29;100206.41;;;9.76;85.71
65758;BME280;52495;52.208;5.158;2022-12-29T12:58:07;100199.63;;;9.71;86.36
65758;BME280;52495;52.208;5.158;2022-12-29T13:00:45;100201.31;;;9.72;86.88
65758;BME280;52495;52.208;5.158;2022-12-29T13:03:26;100210.69;;;9.77;87.82
65758;BME280;52495;52.208;5.158;2022-12-29T13:06:16;100208.13;;;9.75;88.70
65758;BME280;52495;52.208;5.158;2022-12-29T13:08:57;100217.47;;;9.81;88.83
65758;BME280;52495;52.208;5.158;2022-12-29T13:11:34;100211.31;;;9.86;88.39
65758;BME280;52495;52.208;5.158;2022-12-29T13:14:12;100215.59;;;9.86;87.50
65758;BME280;52495;52.208;5.158;2022-12-29T13:16:49;100218.25;;;9.83;86.25
65758;BME280;52495;52.208;5.158;2022-12-29T13:19:26;100218.22;;;9.84;84.54
65758;BME280;52495;52.208;5.158;2022-12-29T13:22:03;100223.34;;;9.86;83.12
65758;BME280;52495;52.208;5.158;2022-12-29T13:24:38;100225.88;;;9.87;83.69
65758;BME280;52495;52.208;5.158;2022-12-29T13:27:15;100225.91;;;9.86;82.68
65758;BME280;52495;52.208;5.158;2022-12-29T13:29:47;100228.59;;;9.81;82.59
65758;BME280;52495;52.208;5.158;2022-12-29T13:32:23;100231.03;;;9.87;83.43
65758;BME280;52495;52.208;5.158;2022-12-29T13:35:10;100232.81;;;9.84;82.44